sensor_id;sensor_type;location;lat;lon;timestamp;P1;durP1;ratioP1;P2;durP2;ratioP2
3547;SDS011;1788;49.400;11.092;2023-03-19T00:03:24;12.37;;;8.00;;
3547;SDS011;1788;49.400;11.092;2023-03-19T00:05:51;10.27;;;7.27;;
3547;SDS011;1788;49.400;11.092;2023-03-19T00:08:18;10.37;;;7.53;;
3547;SDS011;1788;49.400;11.092;2023-03-19T00:10:45;10.77;;;6.77;;
3547;SDS011;1788;49.400;11.092;2023-03-19T00:13:11;9.10;;;7.53;;
3547;SDS011;1788;49.400;11.092;2023-03-19T00:15:38;9.37;;;6.70;;
3547;SDS011;1788;49.400;11.092;2023-03-19T00:18:05;9.03;;;6.37;;
3547;SDS011;1788;49.400;11.092;2023-03-19T00:20:31;11.27;;;7.17;;
3547;SDS011;1788;49.400;11.092;2023-03-19T00:22:58;12.33;;;6.70;;
3547;SDS011;1788;49.400;11.092;2023-03-19T00:25:24;13.30;;;7.33;;
3547;SDS011;1788;49.400;11.092;2023-03-19T00:27:51;10.73;;;7.50;;
3547;SDS011;1788;49.400;11.092;2023-03-19T00:30:18;11.27;;;7.43;;
3547;SDS011;1788;49.400;11.092;2023-03-19T00:32:44;11.20;;;7.63;;
3547;SDS011;1788;49.400;11.092;2023-03-19T00:35:11;11.00;;;7.70;;
3547;SDS011;1788;49.400;11.092;2023-03-19T00:37:38;9.27;;;7.20;;
3547;SDS011;1788;49.400;11.092;2023-03-19T00:40:04;11.00;;;7.57;;
3547;SDS011;1788;49.400;11.092;2023-03-19T00:42:31;12.00;;;8.13;;
3547;SDS011;1788;49.400;11.092;2023-03-19T00:44:58;12.23;;;8.10;;
3547;SDS011;1788;49.400;11.092;2023-03-19T00:47:25;12.07;;;7.33;;
3547;SDS011;1788;49.400;11.092;2023-03-19T00:49:51;11.40;;;7.50;;
3547;SDS011;1788;49.400;11.092;2023-03-19T00:52:18;12.27;;;7.80;;
3547;SDS011;1788;49.400;11.092;2023-03-19T00:54:45;8.03;;;6.73;;
3547;SDS011;1788;49.400;11.092;2023-03-19T00:57:11;11.40;;;7.90;;
3547;SDS011;1788;49.400;11.092;2023-03-19T00:59:38;9.53;;;7.20;;
3547;SDS011;1788;49.400;11.092;2023-03-19T01:02:05;8.43;;;7.50;;
3547;SDS011;1788;49.400;11.092;2023-03-19T01:04:31;10.57;;;7.40;;
3547;SDS011;1788;49.400;11.092;2023-03-19T01:06:58;9.80;;;6.77;;
3547;SDS011;1788;49.400;11.092;2023-03-19T01:09:25;11.37;;;7.17;;
3547;SDS011;1788;49.400;11.092;2023-03-19T01:11:51;10.00;;;7.40;;
3547;SDS011;1788;49.400;11.092;2023-03-19T01:14:18;15.30;;;7.73;;
3547;SDS011;1788;49.400;11.092;2023-03-19T01:16:45;8.90;;;7.27;;
3547;SDS011;1788;49.400;11.092;2023-03-19T01:19:12;10.23;;;7.47;;
3547;SDS011;1788;49.400;11.092;2023-03-19T01:21:39;13.00;;;7.80;;
3547;SDS011;1788;49.400;11.092;2023-03-19T01:24:06;12.13;;;7.70;;
3547;SDS011;1788;49.400;11.092;2023-03-19T01:26:32;10.47;;;7.80;;
3547;SDS011;1788;49.400;11.092;2023-03-19T01:28:59;8.43;;;7.13;;
3547;SDS011;1788;49.400;11.092;2023-03-19T01:31:25;10.57;;;7.30;;
3547;SDS011;1788;49.400;11.092;2023-03-19T01:33:52;12.37;;;7.40;;
3547;SDS011;1788;49.400;11.092;2023-03-19T01:36:19;10.23;;;7.90;;
3547;SDS011;1788;49.400;11.092;2023-03-19T01:38:45;11.37;;;8.30;;
3547;SDS011;1788;49.400;11.092;2023-03-19T01:41:12;7.90;;;7.47;;
3547;SDS011;1788;49.400;11.092;2023-03-19T01:43:39;9.77;;;7.30;;
3547;SDS011;1788;49.400;11.092;2023-03-19T01:50:58;11.43;;;7.10;;
3547;SDS011;1788;49.400;11.092;2023-03-19T01:53:27;11.23;;;7.17;;
3547;SDS011;1788;49.400;11.092;2023-03-19T01:55:54;12.00;;;8.27;;
3547;SDS011;1788;49.400;11.092;2023-03-19T01:58:18;10.87;;;7.57;;
3547;SDS011;1788;49.400;11.092;2023-03-19T02:00:45;8.87;;;6.87;;
3547;SDS011;1788;49.400;11.092;2023-03-19T02:03:11;10.27;;;7.23;;
3547;SDS011;1788;49.400;11.092;2023-03-19T02:05:38;8.87;;;6.67;;
3547;SDS011;1788;49.400;11.092;2023-03-19T02:08:05;10.73;;;7.37;;
3547;SDS011;1788;49.400;11.092;2023-03-19T02:10:31;14.80;;;9.30;;
3547;SDS011;1788;49.400;11.092;2023-03-19T02:12:59;28.50;;;15.20;;
3547;SDS011;1788;49.400;11.092;2023-03-19T02:15:25;56.90;;;25.70;;
3547;SDS011;1788;49.400;11.092;2023-03-19T02:17:52;73.70;;;32.17;;
3547;SDS011;1788;49.400;11.092;2023-03-19T02:27:39;26.07;;;13.93;;
3547;SDS011;1788;49.400;11.092;2023-03-19T02:32:32;17.00;;;11.70;;
3547;SDS011;1788;49.400;11.092;2023-03-19T02:34:59;17.60;;;11.13;;
3547;SDS011;1788;49.400;11.092;2023-03-19T02:37:27;15.87;;;8.63;;
3547;SDS011;1788;49.400;11.092;2023-03-19T02:42:19;12.23;;;7.40;;
3547;SDS011;1788;49.400;11.092;2023-03-19T02:44:46;13.90;;;7.73;;
3547;SDS011;1788;49.400;11.092;2023-03-19T02:47:14;12.03;;;7.77;;
3547;SDS011;1788;49.400;11.092;2023-03-19T02:49:40;16.03;;;8.90;;
3547;SDS011;1788;49.400;11.092;2023-03-19T02:52:08;10.50;;;7.97;;
3547;SDS011;1788;49.400;11.092;2023-03-19T02:54:35;12.20;;;8.40;;
3547;SDS011;1788;49.400;11.092;2023-03-19T02:57:01;13.27;;;8.73;;
3547;SDS011;1788;49.400;11.092;2023-03-19T02:59:29;13.87;;;8.00;;
3547;SDS011;1788;49.400;11.092;2023-03-19T03:01:55;13.47;;;8.17;;
3547;SDS011;1788;49.400;11.092;2023-03-19T03:04:22;14.57;;;9.17;;
3547;SDS011;1788;49.400;11.092;2023-03-19T03:06:49;11.67;;;8.37;;
3547;SDS011;1788;49.400;11.092;2023-03-19T03:09:15;11.80;;;8.73;;
3547;SDS011;1788;49.400;11.092;2023-03-19T03:11:42;12.73;;;10.00;;
3547;SDS011;1788;49.400;11.092;2023-03-19T03:14:09;12.53;;;8.63;;
3547;SDS011;1788;49.400;11.092;2023-03-19T03:16:36;12.50;;;9.33;;
3547;SDS011;1788;49.400;11.092;2023-03-19T03:19:03;12.77;;;8.93;;
3547;SDS011;1788;49.400;11.092;2023-03-19T03:21:30;13.63;;;9.13;;
3547;SDS011;1788;49.400;11.092;2023-03-19T03:23:56;13.00;;;8.73;;
3547;SDS011;1788;49.400;11.092;2023-03-19T03:26:23;12.73;;;8.93;;
3547;SDS011;1788;49.400;11.092;2023-03-19T03:28:49;15.00;;;9.50;;
3547;SDS011;1788;49.400;11.092;2023-03-19T03:31:16;13.27;;;9.13;;
3547;SDS011;1788;49.400;11.092;2023-03-19T03:33:43;14.63;;;9.20;;
3547;SDS011;1788;49.400;11.092;2023-03-19T03:36:09;17.07;;;9.03;;
3547;SDS011;1788;49.400;11.092;2023-03-19T03:38:36;15.20;;;8.83;;
3547;SDS011;1788;49.400;11.092;2023-03-19T03:41:02;15.17;;;9.43;;
3547;SDS011;1788;49.400;11.092;2023-03-19T03:43:29;11.97;;;8.57;;
3547;SDS011;1788;49.400;11.092;2023-03-19T03:45:56;11.03;;;8.60;;
3547;SDS011;1788;49.400;11.092;2023-03-19T03:48:22;17.13;;;8.53;;
3547;SDS011;1788;49.400;11.092;2023-03-19T03:50:49;12.90;;;9.07;;
3547;SDS011;1788;49.400;11.092;2023-03-19T03:53:16;10.63;;;8.60;;
3547;SDS011;1788;49.400;11.092;2023-03-19T03:55:42;10.50;;;8.43;;
3547;SDS011;1788;49.400;11.092;2023-03-19T03:58:09;12.00;;;7.70;;
3547;SDS011;1788;49.400;11.092;2023-03-19T04:00:35;14.27;;;8.50;;
3547;SDS011;1788;49.400;11.092;2023-03-19T04:03:02;14.30;;;8.30;;
3547;SDS011;1788;49.400;11.092;2023-03-19T04:05:29;15.47;;;9.10;;
3547;SDS011;1788;49.400;11.092;2023-03-19T04:07:55;12.50;;;7.67;;
3547;SDS011;1788;49.400;11.092;2023-03-19T04:10:23;9.10;;;7.00;;
3547;SDS011;1788;49.400;11.092;2023-03-19T04:12:49;11.23;;;7.90;;
3547;SDS011;1788;49.400;11.092;2023-03-19T04:15:16;11.37;;;8.23;;
3547;SDS011;1788;49.400;11.092;2023-03-19T04:17:42;10.23;;;7.37;;
3547;SDS011;1788;49.400;11.092;2023-03-19T04:20:09;12.53;;;7.67;;
3547;SDS011;1788;49.400;11.092;2023-03-19T04:22:36;10.93;;;6.87;;
3547;SDS011;1788;49.400;11.092;2023-03-19T04:25:02;13.53;;;7.97;;
3547;SDS011;1788;49.400;11.092;2023-03-19T04:27:29;15.10;;;7.83;;
3547;SDS011;1788;49.400;11.092;2023-03-19T04:29:56;9.67;;;8.13;;
3547;SDS011;1788;49.400;11.092;2023-03-19T04:32:22;9.77;;;8.07;;
3547;SDS011;1788;49.400;11.092;2023-03-19T04:34:49;10.70;;;7.97;;
3547;SDS011;1788;49.400;11.092;2023-03-19T04:37:15;11.63;;;8.20;;
3547;SDS011;1788;49.400;11.092;2023-03-19T04:39:42;9.27;;;7.37;;
3547;SDS011;1788;49.400;11.092;2023-03-19T04:42:09;10.70;;;7.50;;
3547;SDS011;1788;49.400;11.092;2023-03-19T04:44:35;12.63;;;7.77;;
3547;SDS011;1788;49.400;11.092;2023-03-19T04:47:02;12.10;;;8.10;;
3547;SDS011;1788;49.400;11.092;2023-03-19T04:49:28;16.10;;;8.93;;
3547;SDS011;1788;49.400;11.092;2023-03-19T04:51:55;13.33;;;9.00;;
3547;SDS011;1788;49.400;11.092;2023-03-19T04:54:22;11.07;;;8.17;;
3547;SDS011;1788;49.400;11.092;2023-03-19T04:56:48;11.20;;;7.93;;
3547;SDS011;1788;49.400;11.092;2023-03-19T04:59:15;8.73;;;7.13;;
3547;SDS011;1788;49.400;11.092;2023-03-19T05:01:41;14.33;;;8.03;;
3547;SDS011;1788;49.400;11.092;2023-03-19T05:04:08;10.20;;;8.00;;
3547;SDS011;1788;49.400;11.092;2023-03-19T05:06:35;10.37;;;7.37;;
3547;SDS011;1788;49.400;11.092;2023-03-19T05:09:02;10.03;;;7.37;;
3547;SDS011;1788;49.400;11.092;2023-03-19T05:11:29;11.67;;;7.77;;
3547;SDS011;1788;49.400;11.092;2023-03-19T05:13:55;12.93;;;8.70;;
3547;SDS011;1788;49.400;11.092;2023-03-19T05:16:23;11.40;;;9.30;;
3547;SDS011;1788;49.400;11.092;2023-03-19T05:18:50;11.73;;;8.10;;
3547;SDS011;1788;49.400;11.092;2023-03-19T05:21:17;10.10;;;7.53;;
3547;SDS011;1788;49.400;11.092;2023-03-19T05:23:44;10.03;;;7.97;;
3547;SDS011;1788;49.400;11.092;2023-03-19T05:26:11;12.60;;;7.87;;
3547;SDS011;1788;49.400;11.092;2023-03-19T05:28:37;11.60;;;7.67;;
3547;SDS011;1788;49.400;11.092;2023-03-19T05:31:04;16.77;;;7.70;;
3547;SDS011;1788;49.400;11.092;2023-03-19T05:33:30;13.63;;;7.70;;
3547;SDS011;1788;49.400;11.092;2023-03-19T05:35:57;10.47;;;7.50;;
3547;SDS011;1788;49.400;11.092;2023-03-19T05:38:24;14.53;;;8.63;;
3547;SDS011;1788;49.400;11.092;2023-03-19T05:40:50;12.10;;;8.33;;
3547;SDS011;1788;49.400;11.092;2023-03-19T05:43:17;14.03;;;8.20;;
3547;SDS011;1788;49.400;11.092;2023-03-19T05:45:48;11.27;;;7.80;;
3547;SDS011;1788;49.400;11.092;2023-03-19T05:48:10;10.20;;;7.40;;
3547;SDS011;1788;49.400;11.092;2023-03-19T05:50:37;10.77;;;6.90;;
3547;SDS011;1788;49.400;11.092;2023-03-19T05:53:04;11.47;;;7.70;;
3547;SDS011;1788;49.400;11.092;2023-03-19T05:55:31;21.13;;;14.20;;
3547;SDS011;1788;49.400;11.092;2023-03-19T05:57:57;20.87;;;13.30;;
3547;SDS011;1788;49.400;11.092;2023-03-19T06:00:24;14.43;;;9.67;;
3547;SDS011;1788;49.400;11.092;2023-03-19T06:02:51;12.90;;;8.60;;
3547;SDS011;1788;49.400;11.092;2023-03-19T06:05:17;12.93;;;8.93;;
3547;SDS011;1788;49.400;11.092;2023-03-19T06:07:44;12.43;;;9.53;;
3547;SDS011;1788;49.400;11.092;2023-03-19T06:10:10;15.20;;;9.73;;
3547;SDS011;1788;49.400;11.092;2023-03-19T06:12:37;13.80;;;9.73;;
3547;SDS011;1788;49.400;11.092;2023-03-19T06:15:04;14.37;;;10.17;;
3547;SDS011;1788;49.400;11.092;2023-03-19T06:17:30;12.83;;;8.93;;
3547;SDS011;1788;49.400;11.092;2023-03-19T06:19:57;16.33;;;9.23;;
3547;SDS011;1788;49.400;11.092;2023-03-19T06:22:23;10.53;;;8.00;;
3547;SDS011;1788;49.400;11.092;2023-03-19T06:24:50;14.53;;;9.67;;
3547;SDS011;1788;49.400;11.092;2023-03-19T06:27:17;14.80;;;9.50;;
3547;SDS011;1788;49.400;11.092;2023-03-19T06:29:43;9.73;;;7.93;;
3547;SDS011;1788;49.400;11.092;2023-03-19T06:32:10;11.13;;;7.27;;
3547;SDS011;1788;49.400;11.092;2023-03-19T06:34:36;10.23;;;7.83;;
3547;SDS011;1788;49.400;11.092;2023-03-19T06:37:03;12.73;;;8.37;;
3547;SDS011;1788;49.400;11.092;2023-03-19T06:39:30;10.70;;;7.80;;
3547;SDS011;1788;49.400;11.092;2023-03-19T06:41:56;40.13;;;21.73;;
3547;SDS011;1788;49.400;11.092;2023-03-19T06:44:23;17.50;;;9.67;;
3547;SDS011;1788;49.400;11.092;2023-03-19T06:46:50;15.30;;;8.77;;
3547;SDS011;1788;49.400;11.092;2023-03-19T06:49:16;10.37;;;6.53;;
3547;SDS011;1788;49.400;11.092;2023-03-19T06:51:43;8.93;;;6.97;;
3547;SDS011;1788;49.400;11.092;2023-03-19T06:54:09;11.77;;;8.70;;
3547;SDS011;1788;49.400;11.092;2023-03-19T06:56:36;14.00;;;8.37;;
3547;SDS011;1788;49.400;11.092;2023-03-19T06:59:03;13.43;;;8.47;;
3547;SDS011;1788;49.400;11.092;2023-03-19T07:01:30;9.77;;;7.63;;
3547;SDS011;1788;49.400;11.092;2023-03-19T07:03:57;12.57;;;6.47;;
3547;SDS011;1788;49.400;11.092;2023-03-19T07:06:24;6.60;;;6.10;;
3547;SDS011;1788;49.400;11.092;2023-03-19T07:08:51;9.83;;;6.60;;
3547;SDS011;1788;49.400;11.092;2023-03-19T07:11:17;7.40;;;5.53;;
3547;SDS011;1788;49.400;11.092;2023-03-19T07:13:44;9.93;;;6.30;;
3547;SDS011;1788;49.400;11.092;2023-03-19T07:16:10;9.20;;;6.37;;
3547;SDS011;1788;49.400;11.092;2023-03-19T07:18:37;12.40;;;7.47;;
3547;SDS011;1788;49.400;11.092;2023-03-19T07:21:04;10.70;;;6.50;;
3547;SDS011;1788;49.400;11.092;2023-03-19T07:23:30;8.20;;;6.03;;
3547;SDS011;1788;49.400;11.092;2023-03-19T07:25:58;11.73;;;7.17;;
3547;SDS011;1788;49.400;11.092;2023-03-19T07:28:24;8.30;;;6.60;;
3547;SDS011;1788;49.400;11.092;2023-03-19T07:30:52;5.63;;;5.03;;
3547;SDS011;1788;49.400;11.092;2023-03-19T07:33:19;7.97;;;6.10;;
3547;SDS011;1788;49.400;11.092;2023-03-19T07:35:45;10.93;;;6.83;;
3547;SDS011;1788;49.400;11.092;2023-03-19T07:38:11;9.10;;;5.90;;
3547;SDS011;1788;49.400;11.092;2023-03-19T07:40:38;7.47;;;5.90;;
3547;SDS011;1788;49.400;11.092;2023-03-19T07:43:05;7.40;;;5.73;;
3547;SDS011;1788;49.400;11.092;2023-03-19T07:45:31;9.43;;;6.20;;
3547;SDS011;1788;49.400;11.092;2023-03-19T07:47:58;8.83;;;6.13;;
3547;SDS011;1788;49.400;11.092;2023-03-19T07:50:25;7.43;;;4.57;;
3547;SDS011;1788;49.400;11.092;2023-03-19T07:52:52;8.57;;;5.47;;
3547;SDS011;1788;49.400;11.092;2023-03-19T07:55:19;5.80;;;4.47;;
3547;SDS011;1788;49.400;11.092;2023-03-19T07:57:46;9.43;;;5.60;;
3547;SDS011;1788;49.400;11.092;2023-03-19T08:00:12;9.73;;;6.50;;
3547;SDS011;1788;49.400;11.092;2023-03-19T08:02:39;25.90;;;16.50;;
3547;SDS011;1788;49.400;11.092;2023-03-19T08:05:06;15.80;;;11.13;;
3547;SDS011;1788;49.400;11.092;2023-03-19T08:07:32;10.40;;;7.97;;
3547;SDS011;1788;49.400;11.092;2023-03-19T08:09:59;16.60;;;9.47;;
3547;SDS011;1788;49.400;11.092;2023-03-19T08:12:26;12.70;;;9.63;;
3547;SDS011;1788;49.400;11.092;2023-03-19T08:14:53;8.10;;;6.13;;
3547;SDS011;1788;49.400;11.092;2023-03-19T08:17:19;8.30;;;5.93;;
3547;SDS011;1788;49.400;11.092;2023-03-19T08:19:46;23.40;;;17.97;;
3547;SDS011;1788;49.400;11.092;2023-03-19T08:22:13;8.03;;;5.80;;
3547;SDS011;1788;49.400;11.092;2023-03-19T08:24:39;9.23;;;6.87;;
3547;SDS011;1788;49.400;11.092;2023-03-19T08:27:06;22.00;;;16.07;;
3547;SDS011;1788;49.400;11.092;2023-03-19T08:29:32;9.53;;;7.90;;
3547;SDS011;1788;49.400;11.092;2023-03-19T08:31:59;6.20;;;5.60;;
3547;SDS011;1788;49.400;11.092;2023-03-19T08:34:26;7.70;;;7.00;;
3547;SDS011;1788;49.400;11.092;2023-03-19T08:36:52;7.77;;;4.90;;
3547;SDS011;1788;49.400;11.092;2023-03-19T08:39:19;4.33;;;3.77;;
3547;SDS011;1788;49.400;11.092;2023-03-19T08:41:46;5.73;;;4.60;;
3547;SDS011;1788;49.400;11.092;2023-03-19T08:44:12;5.17;;;3.77;;
3547;SDS011;1788;49.400;11.092;2023-03-19T08:46:39;5.70;;;4.27;;
3547;SDS011;1788;49.400;11.092;2023-03-19T08:49:06;6.63;;;4.87;;
3547;SDS011;1788;49.400;11.092;2023-03-19T08:51:33;4.37;;;4.07;;
3547;SDS011;1788;49.400;11.092;2023-03-19T08:54:00;3.67;;;3.47;;
3547;SDS011;1788;49.400;11.092;2023-03-19T08:56:27;4.33;;;3.80;;
3547;SDS011;1788;49.400;11.092;2023-03-19T08:58:55;3.60;;;3.00;;
3547;SDS011;1788;49.400;11.092;2023-03-19T09:01:20;4.27;;;3.03;;
3547;SDS011;1788;49.400;11.092;2023-03-19T09:03:47;6.63;;;4.30;;
3547;SDS011;1788;49.400;11.092;2023-03-19T09:06:13;7.20;;;4.07;;
3547;SDS011;1788;49.400;11.092;2023-03-19T09:08:41;4.43;;;4.03;;
3547;SDS011;1788;49.400;11.092;2023-03-19T09:11:07;3.63;;;3.43;;
3547;SDS011;1788;49.400;11.092;2023-03-19T09:13:35;3.87;;;3.17;;
3547;SDS011;1788;49.400;11.092;2023-03-19T09:16:01;5.17;;;3.40;;
3547;SDS011;1788;49.400;11.092;2023-03-19T09:18:29;5.30;;;4.97;;
3547;SDS011;1788;49.400;11.092;2023-03-19T09:20:55;20.53;;;14.60;;
3547;SDS011;1788;49.400;11.092;2023-03-19T09:23:22;11.93;;;9.03;;
3547;SDS011;1788;49.400;11.092;2023-03-19T09:25:49;5.73;;;5.30;;
3547;SDS011;1788;49.400;11.092;2023-03-19T09:28:15;8.00;;;4.70;;
3547;SDS011;1788;49.400;11.092;2023-03-19T09:30:44;27.93;;;17.17;;
3547;SDS011;1788;49.400;11.092;2023-03-19T09:33:09;17.17;;;12.73;;
3547;SDS011;1788;49.400;11.092;2023-03-19T09:35:36;14.50;;;9.63;;
3547;SDS011;1788;49.400;11.092;2023-03-19T09:38:03;11.83;;;9.33;;
3547;SDS011;1788;49.400;11.092;2023-03-19T09:45:24;7.27;;;5.53;;
3547;SDS011;1788;49.400;11.092;2023-03-19T09:47:52;14.90;;;11.13;;
3547;SDS011;1788;49.400;11.092;2023-03-19T09:50:19;9.43;;;5.70;;
3547;SDS011;1788;49.400;11.092;2023-03-19T09:52:44;7.43;;;5.20;;
3547;SDS011;1788;49.400;11.092;2023-03-19T09:55:13;29.10;;;12.20;;
3547;SDS011;1788;49.400;11.092;2023-03-19T09:57:37;47.53;;;24.07;;
3547;SDS011;1788;49.400;11.092;2023-03-19T10:07:28;4.27;;;3.10;;
3547;SDS011;1788;49.400;11.092;2023-03-19T10:09:53;3.77;;;3.27;;
3547;SDS011;1788;49.400;11.092;2023-03-19T10:22:06;6.97;;;4.23;;
3547;SDS011;1788;49.400;11.092;2023-03-19T10:26:59;4.50;;;3.17;;
3547;SDS011;1788;49.400;11.092;2023-03-19T10:29:24;4.03;;;3.70;;
3547;SDS011;1788;49.400;11.092;2023-03-19T10:36:45;6.07;;;3.70;;
3547;SDS011;1788;49.400;11.092;2023-03-19T10:39:14;6.47;;;3.60;;
3547;SDS011;1788;49.400;11.092;2023-03-19T10:44:09;5.43;;;4.00;;
3547;SDS011;1788;49.400;11.092;2023-03-19T10:48:59;4.83;;;4.17;;
3547;SDS011;1788;49.400;11.092;2023-03-19T10:51:26;4.43;;;3.83;;
3547;SDS011;1788;49.400;11.092;2023-03-19T10:53:53;4.47;;;4.17;;
3547;SDS011;1788;49.400;11.092;2023-03-19T10:56:21;6.13;;;3.93;;
3547;SDS011;1788;49.400;11.092;2023-03-19T11:01:14;6.90;;;4.43;;
3547;SDS011;1788;49.400;11.092;2023-03-19T11:08:35;9.07;;;6.73;;
3547;SDS011;1788;49.400;11.092;2023-03-19T11:11:01;10.30;;;5.60;;
3547;SDS011;1788;49.400;11.092;2023-03-19T11:13:28;8.27;;;7.00;;
3547;SDS011;1788;49.400;11.092;2023-03-19T11:15:56;8.80;;;4.93;;
3547;SDS011;1788;49.400;11.092;2023-03-19T11:20:56;4.53;;;4.30;;
3547;SDS011;1788;49.400;11.092;2023-03-19T11:23:16;8.50;;;4.43;;
3547;SDS011;1788;49.400;11.092;2023-03-19T11:25:46;6.83;;;4.80;;
3547;SDS011;1788;49.400;11.092;2023-03-19T11:28:11;4.03;;;3.83;;
3547;SDS011;1788;49.400;11.092;2023-03-19T11:37:56;6.67;;;3.87;;
3547;SDS011;1788;49.400;11.092;2023-03-19T11:42:52;4.47;;;3.70;;
3547;SDS011;1788;49.400;11.092;2023-03-19T11:57:35;3.13;;;2.90;;
3547;SDS011;1788;49.400;11.092;2023-03-19T12:09:50;6.70;;;4.70;;
3547;SDS011;1788;49.400;11.092;2023-03-19T12:36:42;3.40;;;3.20;;
3547;SDS011;1788;49.400;11.092;2023-03-19T12:41:33;4.23;;;2.70;;
3547;SDS011;1788;49.400;11.092;2023-03-19T12:48:55;2.87;;;2.63;;
3547;SDS011;1788;49.400;11.092;2023-03-19T12:51:21;3.37;;;2.30;;
3547;SDS011;1788;49.400;11.092;2023-03-19T12:56:16;3.00;;;2.40;;
3547;SDS011;1788;49.400;11.092;2023-03-19T13:01:08;3.60;;;2.70;;
3547;SDS011;1788;49.400;11.092;2023-03-19T13:10:53;4.10;;;2.80;;
3547;SDS011;1788;49.400;11.092;2023-03-19T13:15:47;3.03;;;2.83;;
3547;SDS011;1788;49.400;11.092;2023-03-19T13:18:17;2.83;;;2.67;;
3547;SDS011;1788;49.400;11.092;2023-03-19T13:23:08;3.00;;;2.80;;
3547;SDS011;1788;49.400;11.092;2023-03-19T13:28:01;4.37;;;3.40;;
3547;SDS011;1788;49.400;11.092;2023-03-19T13:30:28;2.90;;;2.70;;
3547;SDS011;1788;49.400;11.092;2023-03-19T13:33:03;3.47;;;3.10;;
3547;SDS011;1788;49.400;11.092;2023-03-19T13:37:50;4.63;;;3.20;;
3547;SDS011;1788;49.400;11.092;2023-03-19T13:42:42;8.23;;;4.93;;
3547;SDS011;1788;49.400;11.092;2023-03-19T13:47:36;2.83;;;2.63;;
3547;SDS011;1788;49.400;11.092;2023-03-19T13:54:56;5.00;;;3.47;;
3547;SDS011;1788;49.400;11.092;2023-03-19T13:59:49;2.97;;;2.57;;
3547;SDS011;1788;49.400;11.092;2023-03-19T14:04:47;3.03;;;2.60;;
3547;SDS011;1788;49.400;11.092;2023-03-19T14:09:39;6.27;;;3.60;;
3547;SDS011;1788;49.400;11.092;2023-03-19T14:14:30;3.63;;;2.43;;
3547;SDS011;1788;49.400;11.092;2023-03-19T14:16:57;2.87;;;2.67;;
3547;SDS011;1788;49.400;11.092;2023-03-19T14:19:24;4.80;;;3.10;;
3547;SDS011;1788;49.400;11.092;2023-03-19T14:26:44;5.80;;;3.23;;
3547;SDS011;1788;49.400;11.092;2023-03-19T14:29:12;3.17;;;2.70;;
3547;SDS011;1788;49.400;11.092;2023-03-19T14:36:34;4.37;;;3.20;;
3547;SDS011;1788;49.400;11.092;2023-03-19T14:38:59;4.70;;;3.30;;
3547;SDS011;1788;49.400;11.092;2023-03-19T14:41:26;4.53;;;3.33;;
3547;SDS011;1788;49.400;11.092;2023-03-19T14:46:22;3.93;;;2.47;;
3547;SDS011;1788;49.400;11.092;2023-03-19T14:53:41;2.30;;;2.13;;
3547;SDS011;1788;49.400;11.092;2023-03-19T14:58:34;2.87;;;2.70;;
3547;SDS011;1788;49.400;11.092;2023-03-19T15:01:04;3.13;;;2.30;;
3547;SDS011;1788;49.400;11.092;2023-03-19T15:08:21;2.33;;;2.13;;
3547;SDS011;1788;49.400;11.092;2023-03-19T15:15:49;2.23;;;2.03;;
3547;SDS011;1788;49.400;11.092;2023-03-19T15:18:10;3.00;;;2.23;;
3547;SDS011;1788;49.400;11.092;2023-03-19T15:20:36;2.10;;;1.80;;
3547;SDS011;1788;49.400;11.092;2023-03-19T15:23:04;1.80;;;1.70;;
3547;SDS011;1788;49.400;11.092;2023-03-19T15:25:29;2.83;;;1.67;;
3547;SDS011;1788;49.400;11.092;2023-03-19T15:30:24;2.00;;;1.93;;
3547;SDS011;1788;49.400;11.092;2023-03-19T15:32:49;3.00;;;2.00;;
3547;SDS011;1788;49.400;11.092;2023-03-19T15:35:17;2.40;;;1.80;;
3547;SDS011;1788;49.400;11.092;2023-03-19T15:37:45;1.77;;;1.67;;
3547;SDS011;1788;49.400;11.092;2023-03-19T15:40:12;1.67;;;1.60;;
3547;SDS011;1788;49.400;11.092;2023-03-19T15:42:37;1.70;;;1.63;;
3547;SDS011;1788;49.400;11.092;2023-03-19T15:47:31;8.17;;;4.13;;
3547;SDS011;1788;49.400;11.092;2023-03-19T15:49:58;2.73;;;2.07;;
3547;SDS011;1788;49.400;11.092;2023-03-19T15:52:24;2.30;;;2.10;;
3547;SDS011;1788;49.400;11.092;2023-03-19T15:54:51;3.17;;;2.30;;
3547;SDS011;1788;49.400;11.092;2023-03-19T15:57:17;2.23;;;2.03;;
3547;SDS011;1788;49.400;11.092;2023-03-19T15:59:44;4.03;;;2.13;;
3547;SDS011;1788;49.400;11.092;2023-03-19T16:02:13;2.33;;;2.17;;
3547;SDS011;1788;49.400;11.092;2023-03-19T16:04:38;6.20;;;3.70;;
3547;SDS011;1788;49.400;11.092;2023-03-19T16:07:04;2.10;;;1.97;;
3547;SDS011;1788;49.400;11.092;2023-03-19T16:09:32;2.43;;;1.70;;
3547;SDS011;1788;49.400;11.092;2023-03-19T16:11:58;2.43;;;1.83;;
3547;SDS011;1788;49.400;11.092;2023-03-19T16:14:26;8.90;;;4.33;;
3547;SDS011;1788;49.400;11.092;2023-03-19T16:16:57;4.20;;;2.20;;
3547;SDS011;1788;49.400;11.092;2023-03-19T16:21:46;5.67;;;2.23;;
3547;SDS011;1788;49.400;11.092;2023-03-19T16:24:18;2.20;;;2.00;;
3547;SDS011;1788;49.400;11.092;2023-03-19T16:26:41;2.23;;;1.80;;
3547;SDS011;1788;49.400;11.092;2023-03-19T16:34:01;5.07;;;4.10;;
3547;SDS011;1788;49.400;11.092;2023-03-19T16:36:29;4.27;;;3.67;;
3547;SDS011;1788;49.400;11.092;2023-03-19T16:38:57;5.50;;;3.20;;
3547;SDS011;1788;49.400;11.092;2023-03-19T16:41:22;6.03;;;4.23;;
3547;SDS011;1788;49.400;11.092;2023-03-19T16:43:48;6.10;;;4.33;;
3547;SDS011;1788;49.400;11.092;2023-03-19T16:46:15;5.30;;;3.50;;
3547;SDS011;1788;49.400;11.092;2023-03-19T16:48:42;4.07;;;3.50;;
3547;SDS011;1788;49.400;11.092;2023-03-19T16:53:36;6.43;;;4.40;;
3547;SDS011;1788;49.400;11.092;2023-03-19T16:56:03;7.30;;;5.07;;
3547;SDS011;1788;49.400;11.092;2023-03-19T17:00:56;4.73;;;4.40;;
3547;SDS011;1788;49.400;11.092;2023-03-19T17:03:23;4.33;;;4.03;;
3547;SDS011;1788;49.400;11.092;2023-03-19T17:05:50;3.80;;;3.00;;
3547;SDS011;1788;49.400;11.092;2023-03-19T17:08:17;3.53;;;2.40;;
3547;SDS011;1788;49.400;11.092;2023-03-19T17:10:45;2.97;;;2.77;;
3547;SDS011;1788;49.400;11.092;2023-03-19T17:15:37;3.97;;;3.27;;
3547;SDS011;1788;49.400;11.092;2023-03-19T17:22:58;4.93;;;3.57;;
3547;SDS011;1788;49.400;11.092;2023-03-19T17:25:25;1.90;;;1.80;;
3547;SDS011;1788;49.400;11.092;2023-03-19T17:27:52;2.93;;;1.93;;
3547;SDS011;1788;49.400;11.092;2023-03-19T17:30:18;2.77;;;2.30;;
3547;SDS011;1788;49.400;11.092;2023-03-19T17:32:46;1.90;;;1.70;;
3547;SDS011;1788;49.400;11.092;2023-03-19T17:35:12;2.80;;;2.60;;
3547;SDS011;1788;49.400;11.092;2023-03-19T17:37:39;2.53;;;2.20;;
3547;SDS011;1788;49.400;11.092;2023-03-19T17:42:32;2.60;;;2.37;;
3547;SDS011;1788;49.400;11.092;2023-03-19T17:44:59;3.03;;;2.80;;
3547;SDS011;1788;49.400;11.092;2023-03-19T17:47:25;3.43;;;2.73;;
3547;SDS011;1788;49.400;11.092;2023-03-19T17:49:52;3.70;;;3.03;;
3547;SDS011;1788;49.400;11.092;2023-03-19T17:52:19;2.80;;;2.60;;
3547;SDS011;1788;49.400;11.092;2023-03-19T17:54:45;3.40;;;3.00;;
3547;SDS011;1788;49.400;11.092;2023-03-19T17:57:12;3.17;;;2.80;;
3547;SDS011;1788;49.400;11.092;2023-03-19T17:59:39;2.40;;;2.20;;
3547;SDS011;1788;49.400;11.092;2023-03-19T18:04:33;6.77;;;2.50;;
3547;SDS011;1788;49.400;11.092;2023-03-19T18:07:00;2.73;;;2.37;;
3547;SDS011;1788;49.400;11.092;2023-03-19T18:09:27;2.40;;;2.20;;
3547;SDS011;1788;49.400;11.092;2023-03-19T18:11:54;7.30;;;3.83;;
3547;SDS011;1788;49.400;11.092;2023-03-19T18:14:21;7.27;;;5.07;;
3547;SDS011;1788;49.400;11.092;2023-03-19T18:16:48;7.83;;;4.47;;
3547;SDS011;1788;49.400;11.092;2023-03-19T18:21:41;3.37;;;2.80;;
3547;SDS011;1788;49.400;11.092;2023-03-19T18:24:08;3.73;;;3.07;;
3547;SDS011;1788;49.400;11.092;2023-03-19T18:26:34;2.97;;;2.40;;
3547;SDS011;1788;49.400;11.092;2023-03-19T18:29:01;3.00;;;2.60;;
3547;SDS011;1788;49.400;11.092;2023-03-19T18:31:28;2.20;;;2.00;;
3547;SDS011;1788;49.400;11.092;2023-03-19T18:33:55;3.73;;;3.53;;
3547;SDS011;1788;49.400;11.092;2023-03-19T18:36:23;2.70;;;1.90;;
3547;SDS011;1788;49.400;11.092;2023-03-19T18:38:49;2.20;;;2.00;;
3547;SDS011;1788;49.400;11.092;2023-03-19T18:43:43;1.87;;;1.77;;